sensor_id;sensor_type;location;lat;lon;timestamp;P1;durP1;ratioP1;P2;durP2;ratioP2
20391;SDS011;10355;53.688;10.078;2022-12-29T00:00:10;2.58;;;0.80;;
20391;SDS011;10355;53.688;10.078;2022-12-29T00:03:20;0.80;;;0.80;;
20391;SDS011;10355;53.688;10.078;2022-12-29T00:06:09;2.92;;;1.10;;
20391;SDS011;10355;53.688;10.078;2022-12-29T00:09:19;1.98;;;1.08;;
20391;SDS011;10355;53.688;10.078;2022-12-29T00:12:08;1.83;;;0.90;;
20391;SDS011;10355;53.688;10.078;2022-12-29T00:15:19;3.17;;;1.10;;
20391;SDS011;10355;53.688;10.078;2022-12-29T00:18:26;1.25;;;0.90;;
20391;SDS011;10355;53.688;10.078;2022-12-29T00:21:36;2.00;;;0.95;;
20391;SDS011;10355;53.688;10.078;2022-12-29T00:24:49;1.65;;;1.08;;
20391;SDS011;10355;53.688;10.078;2022-12-29T00:28:09;1.20;;;1.00;;
20391;SDS011;10355;53.688;10.078;2022-12-29T00:31:24;1.65;;;1.15;;
20391;SDS011;10355;53.688;10.078;2022-12-29T00:34:45;1.30;;;1.02;;
20391;SDS011;10355;53.688;10.078;2022-12-29T00:37:59;2.05;;;1.10;;
20391;SDS011;10355;53.688;10.078;2022-12-29T00:41:28;1.30;;;1.00;;
20391;SDS011;10355;53.688;10.078;2022-12-29T00:44:34;2.25;;;1.10;;
20391;SDS011;10355;53.688;10.078;2022-12-29T00:47:45;1.83;;;1.20;;
20391;SDS011;10355;53.688;10.078;2022-12-29T00:50:34;1.40;;;1.15;;
20391;SDS011;10355;53.688;10.078;2022-12-29T00:53:43;1.38;;;1.00;;
20391;SDS011;10355;53.688;10.078;2022-12-29T00:56:32;1.23;;;1.10;;
20391;SDS011;10355;53.688;10.078;2022-12-29T00:59:42;2.45;;;1.15;;
20391;SDS011;10355;53.688;10.078;2022-12-29T01:02:38;1.60;;;1.10;;
20391;SDS011;10355;53.688;10.078;2022-12-29T01:05:42;1.25;;;1.00;;
20391;SDS011;10355;53.688;10.078;2022-12-29T01:08:52;1.90;;;1.20;;
20391;SDS011;10355;53.688;10.078;2022-12-29T01:11:55;2.28;;;1.13;;
20391;SDS011;10355;53.688;10.078;2022-12-29T01:15:05;1.42;;;1.10;;
20391;SDS011;10355;53.688;10.078;2022-12-29T01:18:02;1.75;;;1.15;;
20391;SDS011;10355;53.688;10.078;2022-12-29T01:21:06;1.38;;;1.10;;
20391;SDS011;10355;53.688;10.078;2022-12-29T01:24:04;2.75;;;1.17;;
20391;SDS011;10355;53.688;10.078;2022-12-29T01:27:07;1.10;;;1.00;;
20391;SDS011;10355;53.688;10.078;2022-12-29T01:30:03;1.63;;;1.20;;
20391;SDS011;10355;53.688;10.078;2022-12-29T01:33:14;1.27;;;1.08;;
20391;SDS011;10355;53.688;10.078;2022-12-29T01:36:07;1.35;;;1.00;;
20391;SDS011;10355;53.688;10.078;2022-12-29T01:39:17;2.38;;;1.10;;
20391;SDS011;10355;53.688;10.078;2022-12-29T01:42:08;1.25;;;0.88;;
20391;SDS011;10355;53.688;10.078;2022-12-29T01:45:22;1.70;;;1.13;;
20391;SDS011;10355;53.688;10.078;2022-12-29T01:48:18;1.90;;;1.08;;
20391;SDS011;10355;53.688;10.078;2022-12-29T01:51:24;3.25;;;1.20;;
20391;SDS011;10355;53.688;10.078;2022-12-29T01:54:22;1.40;;;1.20;;
20391;SDS011;10355;53.688;10.078;2022-12-29T01:57:27;2.70;;;1.17;;
20391;SDS011;10355;53.688;10.078;2022-12-29T02:00:24;1.67;;;1.20;;
20391;SDS011;10355;53.688;10.078;2022-12-29T02:03:27;1.95;;;1.23;;
20391;SDS011;10355;53.688;10.078;2022-12-29T02:06:28;1.67;;;1.05;;
20391;SDS011;10355;53.688;10.078;2022-12-29T02:09:31;1.33;;;1.00;;
20391;SDS011;10355;53.688;10.078;2022-12-29T02:12:29;2.90;;;1.33;;
20391;SDS011;10355;53.688;10.078;2022-12-29T02:15:42;1.60;;;1.33;;
20391;SDS011;10355;53.688;10.078;2022-12-29T02:18:44;1.38;;;1.27;;
20391;SDS011;10355;53.688;10.078;2022-12-29T02:22:01;2.83;;;1.23;;
20391;SDS011;10355;53.688;10.078;2022-12-29T02:28:46;1.27;;;1.17;;
20391;SDS011;10355;53.688;10.078;2022-12-29T02:31:48;2.10;;;1.33;;
20391;SDS011;10355;53.688;10.078;2022-12-29T02:34:54;1.33;;;1.23;;
20391;SDS011;10355;53.688;10.078;2022-12-29T02:37:56;1.70;;;1.23;;
20391;SDS011;10355;53.688;10.078;2022-12-29T02:41:02;2.83;;;1.38;;
20391;SDS011;10355;53.688;10.078;2022-12-29T02:44:03;1.20;;;1.00;;
20391;SDS011;10355;53.688;10.078;2022-12-29T02:47:15;2.53;;;1.30;;
20391;SDS011;10355;53.688;10.078;2022-12-29T02:50:07;2.50;;;1.40;;
20391;SDS011;10355;53.688;10.078;2022-12-29T02:53:18;1.58;;;1.10;;
20391;SDS011;10355;53.688;10.078;2022-12-29T02:56:28;1.27;;;1.10;;
20391;SDS011;10355;53.688;10.078;2022-12-29T02:59:37;3.33;;;1.10;;
20391;SDS011;10355;53.688;10.078;2022-12-29T03:06:01;3.55;;;1.30;;
20391;SDS011;10355;53.688;10.078;2022-12-29T03:09:03;2.80;;;1.30;;
20391;SDS011;10355;53.688;10.078;2022-12-29T03:12:20;2.10;;;1.15;;
20391;SDS011;10355;53.688;10.078;2022-12-29T03:15:20;1.38;;;1.27;;
20391;SDS011;10355;53.688;10.078;2022-12-29T03:18:45;2.17;;;1.27;;
20391;SDS011;10355;53.688;10.078;2022-12-29T03:21:44;2.25;;;1.20;;
20391;SDS011;10355;53.688;10.078;2022-12-29T03:25:20;1.50;;;1.17;;
20391;SDS011;10355;53.688;10.078;2022-12-29T03:28:22;2.58;;;1.10;;
20391;SDS011;10355;53.688;10.078;2022-12-29T03:31:38;1.20;;;0.95;;
20391;SDS011;10355;53.688;10.078;2022-12-29T03:34:27;2.55;;;1.20;;
20391;SDS011;10355;53.688;10.078;2022-12-29T03:37:39;2.03;;;1.08;;
20391;SDS011;10355;53.688;10.078;2022-12-29T03:40:29;2.72;;;1.13;;
20391;SDS011;10355;53.688;10.078;2022-12-29T03:43:40;2.95;;;1.10;;
20391;SDS011;10355;53.688;10.078;2022-12-29T03:46:29;1.73;;;1.00;;
20391;SDS011;10355;53.688;10.078;2022-12-29T03:49:39;1.23;;;0.90;;
20391;SDS011;10355;53.688;10.078;2022-12-29T03:52:35;2.33;;;1.00;;
20391;SDS011;10355;53.688;10.078;2022-12-29T03:55:39;1.98;;;1.00;;
20391;SDS011;10355;53.688;10.078;2022-12-29T03:58:36;1.67;;;0.90;;
20391;SDS011;10355;53.688;10.078;2022-12-29T04:01:44;1.60;;;0.95;;
20391;SDS011;10355;53.688;10.078;2022-12-29T04:04:41;1.67;;;1.05;;
20391;SDS011;10355;53.688;10.078;2022-12-29T04:07:51;2.45;;;1.00;;
20391;SDS011;10355;53.688;10.078;2022-12-29T04:10:41;0.95;;;0.85;;
20391;SDS011;10355;53.688;10.078;2022-12-29T04:13:52;1.00;;;0.90;;
20391;SDS011;10355;53.688;10.078;2022-12-29T04:16:43;1.27;;;0.98;;
20391;SDS011;10355;53.688;10.078;2022-12-29T04:19:53;1.42;;;0.90;;
20391;SDS011;10355;53.688;10.078;2022-12-29T04:23:12;1.08;;;0.70;;
20391;SDS011;10355;53.688;10.078;2022-12-29T04:26:22;0.98;;;0.70;;
20391;SDS011;10355;53.688;10.078;2022-12-29T04:29:32;1.08;;;0.88;;
20391;SDS011;10355;53.688;10.078;2022-12-29T04:32:55;1.15;;;0.75;;
20391;SDS011;10355;53.688;10.078;2022-12-29T04:35:53;0.82;;;0.70;;
20391;SDS011;10355;53.688;10.078;2022-12-29T04:39:03;1.42;;;0.80;;
20391;SDS011;10355;53.688;10.078;2022-12-29T04:41:56;1.30;;;0.82;;
20391;SDS011;10355;53.688;10.078;2022-12-29T04:45:07;0.90;;;0.75;;
20391;SDS011;10355;53.688;10.078;2022-12-29T04:48:05;1.15;;;0.80;;
20391;SDS011;10355;53.688;10.078;2022-12-29T04:51:33;2.20;;;1.00;;
20391;SDS011;10355;53.688;10.078;2022-12-29T04:54:31;0.77;;;0.70;;
20391;SDS011;10355;53.688;10.078;2022-12-29T04:57:42;1.45;;;0.80;;
20391;SDS011;10355;53.688;10.078;2022-12-29T05:00:39;0.82;;;0.60;;
20391;SDS011;10355;53.688;10.078;2022-12-29T05:03:50;0.60;;;0.60;;
20391;SDS011;10355;53.688;10.078;2022-12-29T05:06:46;0.90;;;0.52;;
20391;SDS011;10355;53.688;10.078;2022-12-29T05:09:49;1.20;;;0.68;;
20391;SDS011;10355;53.688;10.078;2022-12-29T05:12:47;1.33;;;0.70;;
20391;SDS011;10355;53.688;10.078;2022-12-29T05:15:57;1.00;;;0.70;;
20391;SDS011;10355;53.688;10.078;2022-12-29T05:18:46;0.85;;;0.70;;
20391;SDS011;10355;53.688;10.078;2022-12-29T05:21:56;1.00;;;0.73;;
20391;SDS011;10355;53.688;10.078;2022-12-29T05:24:46;0.93;;;0.70;;
20391;SDS011;10355;53.688;10.078;2022-12-29T05:28:06;0.70;;;0.70;;
20391;SDS011;10355;53.688;10.078;2022-12-29T05:31:05;1.20;;;0.80;;
20391;SDS011;10355;53.688;10.078;2022-12-29T05:34:15;1.27;;;0.70;;
20391;SDS011;10355;53.688;10.078;2022-12-29T05:37:11;1.20;;;0.60;;
20391;SDS011;10355;53.688;10.078;2022-12-29T05:40:21;0.82;;;0.70;;
20391;SDS011;10355;53.688;10.078;2022-12-29T05:43:15;0.77;;;0.60;;
20391;SDS011;10355;53.688;10.078;2022-12-29T05:46:35;0.70;;;0.65;;
20391;SDS011;10355;53.688;10.078;2022-12-29T05:49:30;0.70;;;0.70;;
20391;SDS011;10355;53.688;10.078;2022-12-29T05:52:57;0.63;;;0.55;;
20391;SDS011;10355;53.688;10.078;2022-12-29T05:55:47;0.88;;;0.60;;
20391;SDS011;10355;53.688;10.078;2022-12-29T05:58:58;2.15;;;0.60;;
20391;SDS011;10355;53.688;10.078;2022-12-29T06:01:47;1.48;;;0.90;;
20391;SDS011;10355;53.688;10.078;2022-12-29T06:04:57;0.60;;;0.60;;
20391;SDS011;10355;53.688;10.078;2022-12-29T06:07:47;0.77;;;0.70;;
20391;SDS011;10355;53.688;10.078;2022-12-29T06:10:57;0.93;;;0.60;;
20391;SDS011;10355;53.688;10.078;2022-12-29T06:13:59;0.88;;;0.65;;
20391;SDS011;10355;53.688;10.078;2022-12-29T06:17:02;1.00;;;0.57;;
20391;SDS011;10355;53.688;10.078;2022-12-29T06:19:58;1.13;;;0.60;;
20391;SDS011;10355;53.688;10.078;2022-12-29T06:23:01;0.52;;;0.50;;
20391;SDS011;10355;53.688;10.078;2022-12-29T06:25:57;0.68;;;0.50;;
20391;SDS011;10355;53.688;10.078;2022-12-29T06:29:02;1.13;;;0.50;;
20391;SDS011;10355;53.688;10.078;2022-12-29T06:31:58;1.25;;;0.50;;
20391;SDS011;10355;53.688;10.078;2022-12-29T06:35:12;0.50;;;0.50;;
20391;SDS011;10355;53.688;10.078;2022-12-29T06:38:04;0.95;;;0.50;;
20391;SDS011;10355;53.688;10.078;2022-12-29T06:41:14;0.93;;;0.60;;
20391;SDS011;10355;53.688;10.078;2022-12-29T06:44:34;0.68;;;0.50;;
20391;SDS011;10355;53.688;10.078;2022-12-29T06:47:43;0.50;;;0.50;;
20391;SDS011;10355;53.688;10.078;2022-12-29T06:50:39;0.90;;;0.50;;
20391;SDS011;10355;53.688;10.078;2022-12-29T06:53:42;0.32;;;0.32;;
20391;SDS011;10355;53.688;10.078;2022-12-29T06:56:38;3.03;;;0.50;;
20391;SDS011;10355;53.688;10.078;2022-12-29T06:59:49;1.55;;;0.50;;
20391;SDS011;10355;53.688;10.078;2022-12-29T07:02:45;0.40;;;0.40;;
20391;SDS011;10355;53.688;10.078;2022-12-29T07:05:55;0.82;;;0.52;;
20391;SDS011;10355;53.688;10.078;2022-12-29T07:08:45;1.30;;;0.65;;
20391;SDS011;10355;53.688;10.078;2022-12-29T07:11:56;0.82;;;0.70;;
20391;SDS011;10355;53.688;10.078;2022-12-29T07:14:54;0.65;;;0.40;;
20391;SDS011;10355;53.688;10.078;2022-12-29T07:18:03;0.40;;;0.40;;
20391;SDS011;10355;53.688;10.078;2022-12-29T07:20:52;0.82;;;0.60;;
20391;SDS011;10355;53.688;10.078;2022-12-29T07:24:02;0.85;;;0.40;;
20391;SDS011;10355;53.688;10.078;2022-12-29T07:26:58;2.95;;;0.70;;
20391;SDS011;10355;53.688;10.078;2022-12-29T07:30:10;0.40;;;0.40;;
20391;SDS011;10355;53.688;10.078;2022-12-29T07:33:06;0.50;;;0.50;;
20391;SDS011;10355;53.688;10.078;2022-12-29T07:36:09;0.60;;;0.50;;
20391;SDS011;10355;53.688;10.078;2022-12-29T07:39:05;1.67;;;0.50;;
20391;SDS011;10355;53.688;10.078;2022-12-29T07:42:15;0.75;;;0.52;;
20391;SDS011;10355;53.688;10.078;2022-12-29T07:45:14;0.77;;;0.60;;
20391;SDS011;10355;53.688;10.078;2022-12-29T07:48:28;0.60;;;0.40;;
20391;SDS011;10355;53.688;10.078;2022-12-29T07:51:24;0.68;;;0.60;;
20391;SDS011;10355;53.688;10.078;2022-12-29T07:54:34;0.60;;;0.60;;
20391;SDS011;10355;53.688;10.078;2022-12-29T07:57:30;1.65;;;0.75;;
20391;SDS011;10355;53.688;10.078;2022-12-29T08:00:34;1.80;;;0.60;;
20391;SDS011;10355;53.688;10.078;2022-12-29T08:03:30;2.10;;;0.60;;
20391;SDS011;10355;53.688;10.078;2022-12-29T08:06:35;1.33;;;0.65;;
20391;SDS011;10355;53.688;10.078;2022-12-29T08:09:32;0.57;;;0.50;;
20391;SDS011;10355;53.688;10.078;2022-12-29T08:12:35;1.20;;;0.60;;
20391;SDS011;10355;53.688;10.078;2022-12-29T08:15:32;1.10;;;0.60;;
20391;SDS011;10355;53.688;10.078;2022-12-29T08:18:36;1.80;;;0.50;;
20391;SDS011;10355;53.688;10.078;2022-12-29T08:21:32;1.95;;;0.50;;
20391;SDS011;10355;53.688;10.078;2022-12-29T08:24:35;1.20;;;0.60;;
20391;SDS011;10355;53.688;10.078;2022-12-29T08:53:40;0.76;;;0.60;;
20391;SDS011;10355;53.688;10.078;2022-12-29T08:56:23;2.30;;;0.50;;
20391;SDS011;10355;53.688;10.078;2022-12-29T08:59:09;1.05;;;0.55;;
20391;SDS011;10355;53.688;10.078;2022-12-29T09:01:53;0.95;;;0.52;;
20391;SDS011;10355;53.688;10.078;2022-12-29T09:04:36;0.70;;;0.60;;
20391;SDS011;10355;53.688;10.078;2022-12-29T09:07:19;1.15;;;0.60;;
20391;SDS011;10355;53.688;10.078;2022-12-29T09:10:04;0.77;;;0.60;;
20391;SDS011;10355;53.688;10.078;2022-12-29T09:12:47;1.90;;;0.70;;
20391;SDS011;10355;53.688;10.078;2022-12-29T09:15:30;1.05;;;0.60;;
20391;SDS011;10355;53.688;10.078;2022-12-29T09:18:13;0.60;;;0.55;;
20391;SDS011;10355;53.688;10.078;2022-12-29T09:21:02;2.83;;;0.63;;
20391;SDS011;10355;53.688;10.078;2022-12-29T09:23:45;1.00;;;0.60;;
20391;SDS011;10355;53.688;10.078;2022-12-29T09:26:29;0.73;;;0.50;;
20391;SDS011;10355;53.688;10.078;2022-12-29T09:29:12;1.85;;;0.63;;
20391;SDS011;10355;53.688;10.078;2022-12-29T09:31:55;2.22;;;0.60;;
20391;SDS011;10355;53.688;10.078;2022-12-29T09:34:37;1.73;;;0.60;;
20391;SDS011;10355;53.688;10.078;2022-12-29T09:37:20;0.70;;;0.50;;
20391;SDS011;10355;53.688;10.078;2022-12-29T09:40:05;1.42;;;0.60;;
20391;SDS011;10355;53.688;10.078;2022-12-29T09:42:52;0.47;;;0.40;;
20391;SDS011;10355;53.688;10.078;2022-12-29T09:45:36;1.40;;;0.60;;
20391;SDS011;10355;53.688;10.078;2022-12-29T09:48:23;2.05;;;0.82;;
20391;SDS011;10355;53.688;10.078;2022-12-29T09:51:10;4.30;;;0.60;;
20391;SDS011;10355;53.688;10.078;2022-12-29T09:53:55;2.05;;;0.50;;
20391;SDS011;10355;53.688;10.078;2022-12-29T09:56:40;2.65;;;0.60;;
20391;SDS011;10355;53.688;10.078;2022-12-29T09:59:24;1.73;;;0.60;;
20391;SDS011;10355;53.688;10.078;2022-12-29T10:02:12;1.55;;;0.70;;
20391;SDS011;10355;53.688;10.078;2022-12-29T10:04:59;3.08;;;0.70;;
20391;SDS011;10355;53.688;10.078;2022-12-29T10:07:43;1.13;;;0.52;;
20391;SDS011;10355;53.688;10.078;2022-12-29T10:10:30;2.72;;;0.60;;
20391;SDS011;10355;53.688;10.078;2022-12-29T10:13:20;3.38;;;0.77;;
20391;SDS011;10355;53.688;10.078;2022-12-29T10:16:07;5.30;;;0.82;;
20391;SDS011;10355;53.688;10.078;2022-12-29T10:18:59;1.90;;;0.65;;
20391;SDS011;10355;53.688;10.078;2022-12-29T10:21:48;3.75;;;0.70;;
20391;SDS011;10355;53.688;10.078;2022-12-29T10:24:31;1.42;;;0.60;;
20391;SDS011;10355;53.688;10.078;2022-12-29T10:27:15;2.80;;;0.65;;
20391;SDS011;10355;53.688;10.078;2022-12-29T10:29:59;4.18;;;0.75;;
20391;SDS011;10355;53.688;10.078;2022-12-29T10:32:46;2.83;;;0.80;;
20391;SDS011;10355;53.688;10.078;2022-12-29T10:35:32;5.75;;;0.90;;
20391;SDS011;10355;53.688;10.078;2022-12-29T10:38:19;1.40;;;0.60;;
20391;SDS011;10355;53.688;10.078;2022-12-29T10:41:03;1.98;;;0.73;;
20391;SDS011;10355;53.688;10.078;2022-12-29T10:43:48;3.15;;;0.80;;
20391;SDS011;10355;53.688;10.078;2022-12-29T10:46:32;1.75;;;0.60;;
20391;SDS011;10355;53.688;10.078;2022-12-29T10:49:17;4.78;;;0.63;;
20391;SDS011;10355;53.688;10.078;2022-12-29T10:52:03;2.47;;;0.70;;
20391;SDS011;10355;53.688;10.078;2022-12-29T10:54:48;2.55;;;0.80;;
20391;SDS011;10355;53.688;10.078;2022-12-29T10:57:32;3.15;;;0.88;;
20391;SDS011;10355;53.688;10.078;2022-12-29T11:00:16;3.50;;;0.75;;
20391;SDS011;10355;53.688;10.078;2022-12-29T11:03:09;2.53;;;0.65;;
20391;SDS011;10355;53.688;10.078;2022-12-29T11:05:57;2.88;;;0.70;;
20391;SDS011;10355;53.688;10.078;2022-12-29T11:08:41;3.05;;;0.90;;
20391;SDS011;10355;53.688;10.078;2022-12-29T11:11:28;2.45;;;0.70;;
20391;SDS011;10355;53.688;10.078;2022-12-29T11:14:17;3.80;;;0.73;;
20391;SDS011;10355;53.688;10.078;2022-12-29T11:17:01;1.60;;;0.60;;
20391;SDS011;10355;53.688;10.078;2022-12-29T11:19:45;3.78;;;0.90;;
20391;SDS011;10355;53.688;10.078;2022-12-29T11:22:29;1.42;;;0.65;;
20391;SDS011;10355;53.688;10.078;2022-12-29T11:25:12;2.42;;;0.70;;
20391;SDS011;10355;53.688;10.078;2022-12-29T11:27:55;3.05;;;0.68;;
20391;SDS011;10355;53.688;10.078;2022-12-29T11:30:38;1.88;;;0.90;;
20391;SDS011;10355;53.688;10.078;2022-12-29T11:33:21;1.83;;;0.80;;
20391;SDS011;10355;53.688;10.078;2022-12-29T11:36:04;3.55;;;0.80;;
20391;SDS011;10355;53.688;10.078;2022-12-29T11:38:50;2.17;;;0.70;;
20391;SDS011;10355;53.688;10.078;2022-12-29T11:41:33;3.47;;;0.77;;
20391;SDS011;10355;53.688;10.078;2022-12-29T11:44:16;3.70;;;0.82;;
20391;SDS011;10355;53.688;10.078;2022-12-29T11:46:58;3.88;;;0.82;;
20391;SDS011;10355;53.688;10.078;2022-12-29T11:49:41;5.32;;;0.70;;
20391;SDS011;10355;53.688;10.078;2022-12-29T11:52:32;2.63;;;0.60;;
20391;SDS011;10355;53.688;10.078;2022-12-29T11:55:19;1.92;;;0.70;;
20391;SDS011;10355;53.688;10.078;2022-12-29T11:58:04;2.50;;;0.50;;
20391;SDS011;10355;53.688;10.078;2022-12-29T12:00:47;2.95;;;0.63;;
20391;SDS011;10355;53.688;10.078;2022-12-29T12:03:31;0.88;;;0.73;;
20391;SDS011;10355;53.688;10.078;2022-12-29T12:06:18;2.90;;;0.50;;
20391;SDS011;10355;53.688;10.078;2022-12-29T12:09:02;2.72;;;0.77;;
20391;SDS011;10355;53.688;10.078;2022-12-29T12:11:48;2.60;;;0.88;;
20391;SDS011;10355;53.688;10.078;2022-12-29T12:14:36;3.85;;;0.93;;
20391;SDS011;10355;53.688;10.078;2022-12-29T12:17:29;1.48;;;0.68;;
20391;SDS011;10355;53.688;10.078;2022-12-29T12:20:19;2.35;;;0.60;;
20391;SDS011;10355;53.688;10.078;2022-12-29T12:23:06;2.42;;;0.70;;
20391;SDS011;10355;53.688;10.078;2022-12-29T12:25:57;2.33;;;0.70;;
20391;SDS011;10355;53.688;10.078;2022-12-29T12:28:45;1.42;;;0.68;;
20391;SDS011;10355;53.688;10.078;2022-12-29T12:31:33;4.30;;;0.65;;
20391;SDS011;10355;53.688;10.078;2022-12-29T12:34:20;2.17;;;0.70;;
20391;SDS011;10355;53.688;10.078;2022-12-29T12:37:13;3.47;;;0.80;;
20391;SDS011;10355;53.688;10.078;2022-12-29T12:40:04;3.67;;;0.75;;
20391;SDS011;10355;53.688;10.078;2022-12-29T12:42:51;3.17;;;0.60;;
20391;SDS011;10355;53.688;10.078;2022-12-29T12:45:41;3.65;;;0.77;;
20391;SDS011;10355;53.688;10.078;2022-12-29T12:48:30;3.55;;;0.73;;
20391;SDS011;10355;53.688;10.078;2022-12-29T12:51:17;5.30;;;1.02;;
20391;SDS011;10355;53.688;10.078;2022-12-29T12:54:07;3.63;;;0.68;;
20391;SDS011;10355;53.688;10.078;2022-12-29T12:56:58;1.67;;;0.70;;
20391;SDS011;10355;53.688;10.078;2022-12-29T12:59:47;2.20;;;0.70;;
20391;SDS011;10355;53.688;10.078;2022-12-29T13:02:37;3.63;;;1.00;;
20391;SDS011;10355;53.688;10.078;2022-12-29T13:05:29;1.55;;;0.50;;
20391;SDS011;10355;53.688;10.078;2022-12-29T13:11:17;2.97;;;0.77;;
20391;SDS011;10355;53.688;10.078;2022-12-29T13:14:09;3.95;;;0.70;;
20391;SDS011;10355;53.688;10.078;2022-12-29T13:16:53;2.47;;;0.77;;
20391;SDS011;10355;53.688;10.078;2022-12-29T13:19:40;2.70;;;0.73;;
20391;SDS011;10355;53.688;10.078;2022-12-29T13:22:24;4.43;;;0.93;;
20391;SDS011;10355;53.688;10.078;2022-12-29T13:25:18;4.65;;;0.90;;
20391;SDS011;10355;53.688;10.078;2022-12-29T13:28:03;1.85;;;0.65;;
20391;SDS011;10355;53.688;10.078;2022-12-29T13:30:50;1.58;;;0.52;;
20391;SDS011;10355;53.688;10.078;2022-12-29T13:33:37;4.10;;;0.80;;
20391;SDS011;10355;53.688;10.078;2022-12-29T13:36:26;3.88;;;0.80;;
20391;SDS011;10355;53.688;10.078;2022-12-29T13:39:10;4.82;;;0.70;;
20391;SDS011;10355;53.688;10.078;2022-12-29T13:42:01;4.00;;;0.88;;
20391;SDS011;10355;53.688;10.078;2022-12-29T13:44:45;3.67;;;0.90;;
20391;SDS011;10355;53.688;10.078;2022-12-29T13:47:30;3.10;;;0.80;;
20391;SDS011;10355;53.688;10.078;2022-12-29T13:50:14;3.58;;;0.80;;
20391;SDS011;10355;53.688;10.078;2022-12-29T13:53:01;2.30;;;0.90;;
20391;SDS011;10355;53.688;10.078;2022-12-29T13:55:47;7.47;;;1.00;;
20391;SDS011;10355;53.688;10.078;2022-12-29T13:58:33;3.30;;;0.80;;
20391;SDS011;10355;53.688;10.078;2022-12-29T14:01:18;2.60;;;0.80;;
20391;SDS011;10355;53.688;10.078;2022-12-29T14:04:08;1.85;;;0.60;;
20391;SDS011;10355;53.688;10.078;2022-12-29T14:07:01;3.78;;;0.95;;
20391;SDS011;10355;53.688;10.078;2022-12-29T14:09:47;2.75;;;0.95;;
20391;SDS011;10355;53.688;10.078;2022-12-29T14:12:35;4.22;;;0.98;;
20391;SDS011;10355;53.688;10.078;2022-12-29T14:15:20;2.55;;;0.70;;
20391;SDS011;10355;53.688;10.078;2022-12-29T14:18:05;2.47;;;0.68;;
20391;SDS011;10355;53.688;10.078;2022-12-29T14:20:53;3.35;;;0.80;;
20391;SDS011;10355;53.688;10.078;2022-12-29T14:23:38;1.55;;;0.70;;
20391;SDS011;10355;53.688;10.078;2022-12-29T14:26:35;2.80;;;0.95;;
20391;SDS011;10355;53.688;10.078;2022-12-29T14:35:37;2.47;;;0.63;;
20391;SDS011;10355;53.688;10.078;2022-12-29T14:38:22;2.05;;;0.70;;
20391;SDS011;10355;53.688;10.078;2022-12-29T14:44:12;3.60;;;0.70;;
20391;SDS011;10355;53.688;10.078;2022-12-29T14:47:00;3.60;;;0.70;;
20391;SDS011;10355;53.688;10.078;2022-12-29T14:49:44;2.65;;;0.70;;
20391;SDS011;10355;53.688;10.078;2022-12-29T14:52:27;2.17;;;0.63;;
20391;SDS011;10355;53.688;10.078;2022-12-29T14:55:30;1.75;;;0.70;;
20391;SDS011;10355;53.688;10.078;2022-12-29T14:58:14;4.38;;;0.73;;
20391;SDS011;10355;53.688;10.078;2022-12-29T15:01:00;2.85;;;0.90;;
20391;SDS011;10355;53.688;10.078;2022-12-29T15:03:44;2.92;;;0.70;;
20391;SDS011;10355;53.688;10.078;2022-12-29T15:06:28;3.08;;;0.65;;
20391;SDS011;10355;53.688;10.078;2022-12-29T15:09:14;6.45;;;0.80;;
20391;SDS011;10355;53.688;10.078;2022-12-29T15:12:01;2.80;;;0.80;;
20391;SDS011;10355;53.688;10.078;2022-12-29T15:14:49;2.90;;;0.77;;
20391;SDS011;10355;53.688;10.078;2022-12-29T15:17:33;2.33;;;0.80;;
20391;SDS011;10355;53.688;10.078;2022-12-29T15:20:22;1.98;;;0.70;;
20391;SDS011;10355;53.688;10.078;2022-12-29T15:23:08;4.50;;;0.85;;
20391;SDS011;10355;53.688;10.078;2022-12-29T15:25:54;2.40;;;1.00;;
20391;SDS011;10355;53.688;10.078;2022-12-29T15:28:38;2.85;;;0.90;;
20391;SDS011;10355;53.688;10.078;2022-12-29T15:31:22;3.85;;;1.05;;
20391;SDS011;10355;53.688;10.078;2022-12-29T15:34:12;2.70;;;0.90;;
20391;SDS011;10355;53.688;10.078;2022-12-29T15:36:56;6.15;;;0.90;;
20391;SDS011;10355;53.688;10.078;2022-12-29T15:39:38;3.20;;;0.80;;
20391;SDS011;10355;53.688;10.078;2022-12-29T15:42:35;4.93;;;0.90;;
20391;SDS011;10355;53.688;10.078;2022-12-29T15:45:21;3.13;;;0.80;;
20391;SDS011;10355;53.688;10.078;2022-12-29T15:48:10;3.08;;;0.80;;
20391;SDS011;10355;53.688;10.078;2022-12-29T15:50:57;2.47;;;0.80;;
20391;SDS011;10355;53.688;10.078;2022-12-29T15:53:40;4.00;;;1.20;;
20391;SDS011;10355;53.688;10.078;2022-12-29T15:56:23;2.28;;;0.80;;
20391;SDS011;10355;53.688;10.078;2022-12-29T15:59:17;3.30;;;0.90;;
20391;SDS011;10355;53.688;10.078;2022-12-29T16:02:07;4.47;;;1.25;;
20391;SDS011;10355;53.688;10.078;2022-12-29T16:04:53;6.43;;;1.13;;
20391;SDS011;10355;53.688;10.078;2022-12-29T16:07:58;3.13;;;1.00;;
20391;SDS011;10355;53.688;10.078;2022-12-29T16:10:41;2.45;;;1.00;;
20391;SDS011;10355;53.688;10.078;2022-12-29T16:13:25;5.22;;;0.90;;
20391;SDS011;10355;53.688;10.078;2022-12-29T16:16:11;3.55;;;0.90;;
20391;SDS011;10355;53.688;10.078;2022-12-29T16:18:56;3.15;;;0.90;;
20391;SDS011;10355;53.688;10.078;2022-12-29T16:21:39;4.13;;;1.10;;
20391;SDS011;10355;53.688;10.078;2022-12-29T16:24:24;3.33;;;1.05;;
20391;SDS011;10355;53.688;10.078;2022-12-29T16:27:09;5.93;;;1.00;;
20391;SDS011;10355;53.688;10.078;2022-12-29T16:29:53;2.95;;;1.17;;
20391;SDS011;10355;53.688;10.078;2022-12-29T16:32:44;3.42;;;1.08;;
20391;SDS011;10355;53.688;10.078;2022-12-29T16:35:27;4.07;;;1.00;;
20391;SDS011;10355;53.688;10.078;2022-12-29T16:38:12;2.42;;;1.08;;
20391;SDS011;10355;53.688;10.078;2022-12-29T16:40:57;3.13;;;1.10;;
20391;SDS011;10355;53.688;10.078;2022-12-29T16:43:43;3.38;;;0.90;;
20391;SDS011;10355;53.688;10.078;2022-12-29T16:46:26;3.80;;;1.10;;
20391;SDS011;10355;53.688;10.078;2022-12-29T16:49:11;2.95;;;1.20;;
20391;SDS011;10355;53.688;10.078;2022-12-29T16:52:10;3.60;;;1.00;;
20391;SDS011;10355;53.688;10.078;2022-12-29T16:54:54;4.57;;;1.35;;
20391;SDS011;10355;53.688;10.078;2022-12-29T16:57:38;4.57;;;1.15;;
20391;SDS011;10355;53.688;10.078;2022-12-29T17:00:25;3.63;;;1.02;;
20391;SDS011;10355;53.688;10.078;2022-12-29T17:03:08;2.60;;;1.08;;
20391;SDS011;10355;53.688;10.078;2022-12-29T17:05:51;4.97;;;1.10;;
20391;SDS011;10355;53.688;10.078;2022-12-29T17:08:39;4.18;;;1.08;;
20391;SDS011;10355;53.688;10.078;2022-12-29T17:11:24;5.70;;;1.23;;
20391;SDS011;10355;53.688;10.078;2022-12-29T17:17:27;6.70;;;1.30;;
20391;SDS011;10355;53.688;10.078;2022-12-29T17:20:14;3.28;;;1.27;;
20391;SDS011;10355;53.688;10.078;2022-12-29T17:22:57;3.85;;;1.42;;
20391;SDS011;10355;53.688;10.078;2022-12-29T17:25:40;3.97;;;1.40;;
20391;SDS011;10355;53.688;10.078;2022-12-29T17:28:24;3.38;;;1.15;;
20391;SDS011;10355;53.688;10.078;2022-12-29T17:31:08;4.75;;;1.42;;
20391;SDS011;10355;53.688;10.078;2022-12-29T17:33:52;5.65;;;1.45;;
20391;SDS011;10355;53.688;10.078;2022-12-29T17:36:37;5.95;;;1.50;;
20391;SDS011;10355;53.688;10.078;2022-12-29T17:39:20;5.50;;;1.35;;
20391;SDS011;10355;53.688;10.078;2022-12-29T17:42:02;2.95;;;1.20;;
20391;SDS011;10355;53.688;10.078;2022-12-29T17:44:46;6.10;;;1.25;;
20391;SDS011;10355;53.688;10.078;2022-12-29T17:47:29;7.38;;;1.50;;
20391;SDS011;10355;53.688;10.078;2022-12-29T17:50:14;4.30;;;1.33;;
20391;SDS011;10355;53.688;10.078;2022-12-29T17:52:59;6.07;;;1.30;;
20391;SDS011;10355;53.688;10.078;2022-12-29T17:55:42;3.70;;;1.20;;
20391;SDS011;10355;53.688;10.078;2022-12-29T17:58:25;6.15;;;1.08;;
20391;SDS011;10355;53.688;10.078;2022-12-29T18:01:09;4.22;;;1.25;;